Time;durP1;ratioP1;P1;durP2;ratioP2;P2;SDS_P1;SDS_P2;PMS_P1;PMS_P2;Temp;Humidity;BMP_temperature;BMP_pressure;BME280_temperature;BME280_humidity;BME280_pressure;Samples;Min_cycle;Max_cycle;Signal;HPM_P1;HPM_P2
2021/03/11 00:00:39;;;;;;;6.25;3.20;;;12.60;44.80;;;;;;2623465;52;21009;-63
2021/03/11 00:03:06;;;;;;;7.85;2.85;;;12.60;44.60;;;;;;2623512;52;20938;-63
2021/03/11 00:05:33;;;;;;;6.30;2.40;;;12.60;44.70;;;;;;2370633;53;20958;-66
2021/03/11 00:07:59;;;;;;;6.22;2.15;;;12.50;44.70;;;;;;2373407;53;21645;-63
2021/03/11 00:10:26;;;;;;;4.20;1.85;;;12.50;45.00;;;;;;2355140;53;21010;-64
2021/03/11 00:12:57;;;;;;;4.30;1.98;;;12.50;45.30;;;;;;2366258;54;21090;-63
2021/03/11 00:15:24;;;;;;;5.40;2.50;;;12.40;45.50;;;;;;2596057;52;20950;-66
2021/03/11 00:17:50;;;;;;;5.62;2.90;;;12.50;45.70;;;;;;2353262;54;21522;-65
2021/03/11 00:20:22;;;;;;;6.22;2.55;;;12.40;45.70;;;;;;2598728;52;21019;-65
2021/03/11 00:22:48;;;;;;;5.78;2.72;;;12.40;45.80;;;;;;2369931;53;20942;-64
2021/03/11 00:25:16;;;;;;;7.37;3.50;;;12.40;46.00;;;;;;2594710;52;20895;-67
2021/03/11 00:27:42;;;;;;;6.22;2.78;;;12.40;46.10;;;;;;2370896;54;20938;-65
2021/03/11 00:30:09;;;;;;;5.55;2.50;;;12.50;46.30;;;;;;2620032;52;20993;-64
2021/03/11 00:32:37;;;;;;;4.62;2.35;;;12.50;46.20;;;;;;2351070;53;21052;-65
2021/03/11 00:35:05;;;;;;;4.68;2.25;;;12.50;46.20;;;;;;2368511;53;20942;-66
2021/03/11 00:37:31;;;;;;;4.10;2.00;;;12.50;46.30;;;;;;2371816;54;21005;-62
2021/03/11 00:40:01;;;;;;;5.65;2.85;;;12.50;46.40;;;;;;2355012;53;20964;-63
2021/03/11 00:42:30;;;;;;;6.50;3.37;;;12.60;46.40;;;;;;2352313;53;20947;-65
2021/03/11 00:44:56;;;;;;;6.62;3.37;;;12.70;46.30;;;;;;2604613;52;20987;-63
2021/03/11 00:47:25;;;;;;;6.85;3.33;;;12.70;46.50;;;;;;2595018;52;20980;-65
2021/03/11 00:49:56;;;;;;;6.68;3.42;;;12.80;46.60;;;;;;2360505;53;20925;-65
2021/03/11 00:52:27;;;;;;;7.30;3.85;;;12.80;46.40;;;;;;2591426;52;20966;-66
2021/03/11 00:54:57;;;;;;;8.38;5.10;;;12.80;46.30;;;;;;2331509;55;20919;-63
2021/03/11 00:57:31;;;;;;;10.15;5.30;;;12.90;46.00;;;;;;2373369;53;21013;-64
2021/03/11 01:00:41;;;;;;;9.65;5.00;;;12.90;45.90;;;;;;2358508;53;21040;-62
2021/03/11 01:03:16;;;;;;;10.27;5.47;;;13.00;45.60;;;;;;2590568;52;21696;-66
2021/03/11 01:05:51;;;;;;;9.25;5.12;;;13.00;46.10;;;;;;2605019;52;20963;-64
2021/03/11 01:08:19;;;;;;;9.73;5.68;;;13.00;46.00;;;;;;2608978;52;20970;-67
2021/03/11 01:10:45;;;;;;;11.60;6.20;;;13.00;45.90;;;;;;2349372;53;20985;-67
2021/03/11 01:13:15;;;;;;;9.75;5.55;;;13.10;45.70;;;;;;2618992;52;20966;-65
2021/03/11 01:16:00;;;;;;;11.73;5.72;;;13.10;45.90;;;;;;2589900;52;20955;-63
2021/03/11 01:18:44;;;;;;;10.82;5.68;;;13.10;46.00;;;;;;2332992;54;20951;-65
2021/03/11 01:21:21;;;;;;;11.73;6.68;;;13.10;45.80;;;;;;2364750;54;20961;-64
2021/03/11 01:23:53;;;;;;;11.45;6.28;;;13.10;45.70;;;;;;2347809;54;20981;-64
2021/03/11 01:26:33;;;;;;;12.10;7.07;;;13.20;45.80;;;;;;2569379;53;21012;-65
2021/03/11 01:29:00;;;;;;;;;;;13.20;45.40;;;;;;2345216;54;20988;-65
2021/03/11 01:31:31;;;;;;;10.65;6.05;;;13.20;44.80;;;;;;2565639;53;20186;-65
2021/03/11 01:34:05;;;;;;;11.48;6.18;;;13.20;45.30;;;;;;2333291;54;20995;-65
2021/03/11 01:36:38;;;;;;;12.75;7.30;;;13.20;45.20;;;;;;2575067;53;20984;-64
2021/03/11 01:39:06;;;;;;;15.00;8.35;;;13.20;45.10;;;;;;2352200;53;21066;-65
2021/03/11 01:41:36;;;;;;;12.50;6.80;;;13.20;44.30;;;;;;2585774;53;21607;-63
2021/03/11 01:44:04;;;;;;;13.77;8.13;;;13.20;44.70;;;;;;2570433;53;20988;-65
2021/03/11 01:46:34;;;;;;;15.80;7.53;;;13.20;44.50;;;;;;2582786;53;20927;-66
2021/03/11 01:49:09;;;;;;;11.83;6.60;;;13.20;44.10;;;;;;2596229;52;20949;-66
2021/03/11 01:51:41;;;;;;;13.38;7.30;;;13.20;44.10;;;;;;2601951;52;21492;-66
2021/03/11 01:54:11;;;;;;;10.75;6.20;;;13.30;44.30;;;;;;2358332;53;21003;-65
2021/03/11 01:56:43;;;;;;;14.15;7.57;;;13.30;44.30;;;;;;2610057;52;21016;-66
2021/03/11 01:59:16;;;;;;;13.82;7.43;;;13.30;43.70;;;;;;2367412;53;21089;-64
2021/03/11 02:01:48;;;;;;;15.55;7.30;;;13.30;43.40;;;;;;2371407;53;20926;-64
2021/03/11 02:04:21;;;;;;;13.48;7.25;;;13.30;43.40;;;;;;2597038;52;20968;-65
2021/03/11 02:07:16;;;;;;;11.55;6.43;;;13.30;43.10;;;;;;2595326;52;1229561;-63
2021/03/11 02:10:01;;;;;;;8.95;5.75;;;13.30;43.20;;;;;;2599955;52;21437;-67
2021/03/11 02:14:38;;;;;;;10.18;4.87;;;13.30;43.80;;;;;;2589891;52;20971;-64
2021/03/11 02:17:21;;;;;;;;;;;;;;;;;;;;;
2021/03/11 02:21:28;;;;;;;11.73;6.10;;;13.40;43.70;;;;;;2615322;52;20930;-65
2021/03/11 02:24:15;;;;;;;12.75;5.62;;;13.40;43.40;;;;;;2365366;53;20998;-66
2021/03/11 02:27:04;;;;;;;11.35;5.90;;;13.40;44.00;;;;;;2370136;53;20956;-64
2021/03/11 02:29:46;;;;;;;9.02;5.15;;;13.40;44.00;;;;;;2341877;54;20959;-65
2021/03/11 02:32:17;;;;;;;9.85;5.45;;;13.40;44.20;;;;;;2615294;52;21047;-67
2021/03/11 02:34:48;;;;;;;11.95;5.28;;;13.40;44.30;;;;;;2355370;53;20958;-64
2021/03/11 02:37:48;;;;;;;9.13;5.05;;;13.40;44.40;;;;;;2591432;52;21036;-65
2021/03/11 02:40:24;;;;;;;7.85;4.43;;;13.40;44.20;;;;;;2367013;53;21725;-66
2021/03/11 02:42:51;;;;;;;8.40;4.72;;;13.40;44.60;;;;;;2371353;53;20921;-65
2021/03/11 02:45:31;;;;;;;9.93;5.07;;;13.30;44.60;;;;;;2370135;54;20974;-63
2021/03/11 02:48:02;;;;;;;7.60;4.43;;;13.30;45.00;;;;;;2371313;53;20967;-65
2021/03/11 02:50:29;;;;;;;7.32;4.45;;;13.30;44.90;;;;;;2618386;52;20995;-66
2021/03/11 02:53:09;;;;;;;7.50;4.60;;;13.30;44.90;;;;;;2596190;52;20957;-67
2021/03/11 02:55:49;;;;;;;8.07;4.43;;;13.20;44.90;;;;;;2345817;53;20944;-66
2021/03/11 02:58:22;;;;;;;9.95;4.60;;;13.20;44.80;;;;;;2341854;53;20987;-64
2021/03/11 03:00:54;;;;;;;9.52;4.43;;;13.20;44.80;;;;;;2327645;53;20977;-67
2021/03/11 03:03:24;;;;;;;10.35;5.25;;;13.30;45.10;;;;;;2351573;53;20980;-65
2021/03/11 03:06:01;;;;;;;8.18;5.03;;;13.30;45.20;;;;;;2343620;54;20913;-65
2021/03/11 03:08:27;;;;;;;10.32;4.85;;;13.30;44.80;;;;;;2339145;53;21968;-64
2021/03/11 03:10:54;;;;;;;9.80;4.75;;;13.30;44.70;;;;;;2335734;53;21045;-66
2021/03/11 03:13:20;;;;;;;10.45;5.40;;;13.30;44.60;;;;;;2565972;53;21520;-66
2021/03/11 03:15:55;;;;;;;9.55;5.20;;;13.40;44.00;;;;;;2342980;53;20947;-64
2021/03/11 03:18:39;;;;;;;7.60;3.90;;;13.40;44.20;;;;;;2343928;53;20957;-64
2021/03/11 03:21:11;;;;;;;11.68;4.80;;;13.40;44.40;;;;;;2331356;54;21001;-65
2021/03/11 03:23:46;;;;;;;9.95;4.90;;;13.50;44.10;;;;;;2335522;54;21319;-65
2021/03/11 03:26:18;;;;;;;9.80;4.90;;;13.50;44.10;;;;;;2348755;54;20993;-64
2021/03/11 03:28:47;;;;;;;7.82;4.43;;;13.50;44.30;;;;;;2362063;54;21046;-63
2021/03/11 03:31:15;;;;;;;9.57;4.55;;;13.50;44.00;;;;;;2339836;54;21437;-65
2021/03/11 03:33:41;;;;;;;7.20;3.83;;;13.50;44.00;;;;;;2370413;54;21815;-66
2021/03/11 03:36:15;;;;;;;7.95;4.12;;;13.60;44.30;;;;;;2372089;53;21327;-63
2021/03/11 03:38:51;;;;;;;6.62;3.80;;;13.60;44.30;;;;;;2370101;54;20934;-63
2021/03/11 03:41:20;;;;;;;6.25;3.80;;;13.60;44.30;;;;;;2369739;53;20930;-65
2021/03/11 03:44:11;;;;;;;11.05;4.50;;;13.60;44.40;;;;;;2317921;54;21059;-64
2021/03/11 03:46:41;;;;;;;7.60;3.78;;;13.60;44.30;;;;;;2329997;53;21554;-63
2021/03/11 03:49:23;;;;;;;7.82;3.58;;;13.60;44.40;;;;;;2336803;53;20945;-66
2021/03/11 03:52:01;;;;;;;7.72;3.65;;;13.60;44.50;;;;;;2589663;52;20932;-66
2021/03/11 03:54:31;;;;;;;9.27;4.30;;;13.60;44.60;;;;;;2586644;53;21513;-66
2021/03/11 03:57:14;;;;;;;7.68;3.80;;;13.60;44.40;;;;;;2330364;53;21465;-64
2021/03/11 03:59:45;;;;;;;7.25;3.90;;;13.60;44.60;;;;;;2517904;54;21718;-64
2021/03/11 04:02:18;;;;;;;6.65;3.22;;;13.60;44.50;;;;;;2336957;54;21721;-67
2021/03/11 04:04:51;;;;;;;5.90;3.50;;;13.60;44.50;;;;;;2354972;54;20946;-62
2021/03/11 04:07:33;;;;;;;6.45;3.12;;;13.60;44.70;;;;;;2595941;52;20946;-65
2021/03/11 04:10:08;;;;;;;8.40;3.87;;;13.60;44.70;;;;;;2592475;52;20986;-65
2021/03/11 04:12:50;;;;;;;6.37;3.28;;;13.60;44.70;;;;;;2354446;53;20935;-66
2021/03/11 04:15:30;;;;;;;5.70;3.45;;;13.60;44.90;;;;;;2602844;52;21463;-67
2021/03/11 04:18:01;;;;;;;8.75;3.80;;;13.60;44.70;;;;;;2613872;52;20946;-64
2021/03/11 04:20:36;;;;;;;7.37;2.72;;;13.60;45.00;;;;;;2358264;53;21051;-64
2021/03/11 04:23:15;;;;;;;7.40;2.62;;;13.60;45.10;;;;;;2350660;54;21029;-65
2021/03/11 04:25:41;;;;;;;5.32;2.33;;;13.60;45.30;;;;;;2618967;52;21011;-67
2021/03/11 04:28:09;;;;;;;6.28;2.60;;;13.60;45.60;;;;;;2354011;54;21532;-63
2021/03/11 04:30:38;;;;;;;7.75;2.87;;;13.60;45.70;;;;;;2356631;54;20991;-65
2021/03/11 04:33:17;;;;;;;4.53;2.55;;;13.60;45.80;;;;;;2341848;54;21023;-67
2021/03/11 04:35:44;;;;;;;6.12;2.22;;;13.60;46.00;;;;;;2328820;54;21385;-66
2021/03/11 04:38:11;;;;;;;5.75;2.70;;;13.60;46.10;;;;;;2363844;53;20994;-64
2021/03/11 04:40:47;;;;;;;6.60;2.22;;;13.60;46.20;;;;;;2623962;52;21754;-63
2021/03/11 04:43:22;;;;;;;4.60;1.95;;;13.60;46.30;;;;;;2346694;53;20956;-64
2021/03/11 04:46:04;;;;;;;5.95;2.00;;;13.60;46.50;;;;;;2342253;53;21008;-66
2021/03/11 04:48:35;;;;;;;5.03;2.72;;;13.60;46.60;;;;;;2588010;52;21002;-66
2021/03/11 04:51:09;;;;;;;5.85;2.28;;;13.60;46.70;;;;;;2327250;53;20976;-66
2021/03/11 04:53:39;;;;;;;3.80;1.90;;;13.60;46.80;;;;;;2344487;53;21432;-64
2021/03/11 04:56:17;;;;;;;4.28;2.15;;;13.60;47.00;;;;;;2362458;54;20966;-66
2021/03/11 04:58:56;;;;;;;5.78;2.28;;;13.60;47.10;;;;;;2343944;53;21008;-67
2021/03/11 05:01:30;;;;;;;4.53;2.12;;;13.60;47.20;;;;;;2353679;54;21026;-66
2021/03/11 05:04:10;;;;;;;5.20;2.10;;;13.60;47.20;;;;;;2337601;54;20945;-63
2021/03/11 05:06:36;;;;;;;15.07;2.60;;;13.60;47.10;;;;;;2336995;53;20975;-64
2021/03/11 05:09:14;;;;;;;4.07;1.80;;;13.60;47.20;;;;;;2347496;53;21791;-64
2021/03/11 05:11:55;;;;;;;4.03;2.00;;;13.60;47.30;;;;;;2593451;52;21476;-65
2021/03/11 05:14:35;;;;;;;4.37;2.45;;;13.60;47.20;;;;;;2352600;54;20934;-63
2021/03/11 05:17:11;;;;;;;4.18;2.30;;;13.60;47.30;;;;;;2619047;52;21396;-66
2021/03/11 05:19:53;;;;;;;4.65;1.92;;;13.60;47.50;;;;;;2356473;53;20955;-66
2021/03/11 05:23:06;;;;;;;5.65;2.35;;;13.60;47.50;;;;;;2618027;52;20997;-66
2021/03/11 05:26:58;;;;;;;5.85;2.67;;;13.60;47.50;;;;;;2355081;55;20998;-65
2021/03/11 05:29:26;;;;;;;5.15;2.37;;;13.60;47.30;;;;;;2357842;53;21012;-65
2021/03/11 05:31:54;;;;;;;4.18;2.28;;;13.60;47.60;;;;;;2346152;54;21593;-65
2021/03/11 05:34:21;;;;;;;6.60;2.53;;;13.60;47.70;;;;;;2348054;53;21100;-62
2021/03/11 05:36:56;;;;;;;5.32;2.10;;;13.60;47.60;;;;;;2362559;54;20931;-63
2021/03/11 05:39:34;;;;;;;3.92;2.12;;;13.60;47.80;;;;;;2349667;53;21024;-67
2021/03/11 05:42:02;;;;;;;4.43;2.42;;;13.60;47.80;;;;;;2357718;53;20922;-66
2021/03/11 05:44:33;;;;;;;8.82;2.67;;;13.60;47.50;;;;;;2358514;53;20981;-63
2021/03/11 05:47:14;;;;;;;4.93;2.50;;;13.60;47.50;;;;;;2591479;52;21087;-64
2021/03/11 05:49:51;;;;;;;;;;;;;;;;;;;;;
2021/03/11 05:52:20;;;;;;;5.18;2.65;;;13.60;47.60;;;;;;2607344;52;20918;-64
2021/03/11 05:54:47;;;;;;;5.40;2.25;;;13.70;47.70;;;;;;2366494;53;20935;-64
2021/03/11 05:57:16;;;;;;;4.40;2.17;;;13.70;47.80;;;;;;2357124;54;21824;-64
2021/03/11 05:59:49;;;;;;;5.93;2.30;;;13.70;47.80;;;;;;2362451;53;20971;-66
2021/03/11 06:02:41;;;;;;;5.43;2.33;;;13.70;47.80;;;;;;2613216;52;20930;-64
2021/03/11 06:05:28;;;;;;;5.35;2.50;;;13.70;47.50;;;;;;2370356;53;20977;-63
2021/03/11 06:08:03;;;;;;;4.30;2.10;;;13.70;47.30;;;;;;2325169;54;21739;-66
2021/03/11 06:10:44;;;;;;;5.35;2.30;;;13.80;47.40;;;;;;2344220;53;21029;-67
2021/03/11 06:13:11;;;;;;;4.20;2.20;;;13.80;47.40;;;;;;2342155;54;21088;-65
2021/03/11 06:15:49;;;;;;;4.07;2.17;;;13.80;47.40;;;;;;2582470;53;21546;-66
2021/03/11 06:18:21;;;;;;;4.68;2.35;;;13.80;47.40;;;;;;2345947;53;21035;-63
2021/03/11 06:20:51;;;;;;;4.87;2.47;;;13.80;47.40;;;;;;2344695;53;20956;-65
2021/03/11 06:23:18;;;;;;;4.53;2.30;;;13.90;47.30;;;;;;2331396;53;21030;-67
2021/03/11 06:25:48;;;;;;;5.60;2.20;;;13.90;47.40;;;;;;2351924;53;21046;-65
2021/03/11 06:28:15;;;;;;;4.60;2.10;;;13.90;47.50;;;;;;2346998;53;21045;-67
2021/03/11 06:30:58;;;;;;;5.25;2.30;;;13.90;47.70;;;;;;2348414;53;21036;-65
2021/03/11 06:33:34;;;;;;;5.50;2.72;;;13.90;47.40;;;;;;2349366;54;21037;-66
2021/03/11 06:36:25;;;;;;;5.75;3.00;;;13.90;47.40;;;;;;2313415;54;21519;-63
2021/03/11 06:38:56;;;;;;;6.05;2.60;;;13.80;47.50;;;;;;2333898;54;21002;-65
2021/03/11 06:41:45;;;;;;;5.55;3.08;;;13.90;47.90;;;;;;2538792;53;21936;-67
2021/03/11 06:44:35;;;;;;;6.12;2.72;;;13.90;47.80;;;;;;2610854;52;20950;-65
2021/03/11 06:47:10;;;;;;;4.28;2.37;;;13.90;47.80;;;;;;2338940;54;21178;-65
2021/03/11 06:50:04;;;;;;;6.18;2.62;;;13.90;48.60;;;;;;2326016;54;20960;-65
2021/03/11 06:52:30;;;;;;;5.22;2.17;;;13.90;48.20;;;;;;2331610;53;21038;-65
2021/03/11 06:55:08;;;;;;;6.47;2.25;;;13.90;48.40;;;;;;2340065;53;21035;-64
2021/03/11 06:57:41;;;;;;;4.50;2.40;;;13.90;48.40;;;;;;2567159;53;20961;-67
2021/03/11 07:00:22;;;;;;;6.87;2.83;;;13.90;48.40;;;;;;2357102;53;21680;-65
2021/03/11 07:03:00;;;;;;;6.78;3.53;;;13.90;48.10;;;;;;2363911;53;21532;-64
2021/03/11 07:05:28;;;;;;;6.10;2.83;;;13.90;48.00;;;;;;2601893;52;20946;-65
2021/03/11 07:08:14;;;;;;;5.18;2.78;;;13.90;48.10;;;;;;2359931;53;20971;-64
2021/03/11 07:10:42;;;;;;;5.68;2.85;;;13.90;48.20;;;;;;2617264;52;20990;-64
2021/03/11 07:13:09;;;;;;;4.00;2.35;;;14.00;48.40;;;;;;2370206;54;20946;-65
2021/03/11 07:15:38;;;;;;;5.20;2.50;;;14.00;48.50;;;;;;2370618;54;21767;-64
2021/03/11 07:18:32;;;;;;;;;;;14.00;48.50;;;;;;2596957;52;21013;-66
2021/03/11 07:21:01;;;;;;;4.90;2.40;;;14.10;47.80;;;;;;2356507;53;20094;-64
2021/03/11 07:23:43;;;;;;;5.07;2.12;;;14.10;48.10;;;;;;2339509;53;21731;-66
2021/03/11 07:26:13;;;;;;;8.02;2.40;;;14.10;48.10;;;;;;2622621;52;20978;-66
2021/03/11 07:28:42;;;;;;;8.63;2.50;;;14.10;48.20;;;;;;2622262;52;20950;-64
2021/03/11 07:31:10;;;;;;;4.10;2.20;;;14.20;48.10;;;;;;2598859;52;21464;-65
2021/03/11 07:33:40;;;;;;;5.35;2.45;;;14.20;48.30;;;;;;2367939;53;20950;-65
2021/03/11 07:36:09;;;;;;;6.12;2.55;;;14.20;48.30;;;;;;2352359;53;20914;-65
2021/03/11 07:38:37;;;;;;;5.37;2.10;;;14.30;47.90;;;;;;2346902;53;21502;-64
2021/03/11 07:41:09;;;;;;;4.25;2.00;;;14.30;48.10;;;;;;2600437;52;20955;-64
2021/03/11 07:43:35;;;;;;;5.10;2.05;;;14.40;48.30;;;;;;2601808;52;20987;-64
2021/03/11 07:46:09;;;;;;;4.05;1.80;;;14.40;48.30;;;;;;2358250;53;20985;-66
2021/03/11 07:48:37;;;;;;;5.07;1.98;;;14.40;47.90;;;;;;2364141;53;20947;-65
2021/03/11 07:51:05;;;;;;;3.83;1.80;;;14.50;47.90;;;;;;2361207;54;20945;-65
2021/03/11 07:53:32;;;;;;;5.65;2.37;;;14.50;48.10;;;;;;2369745;54;21017;-65
2021/03/11 07:55:59;;;;;;;4.50;2.08;;;14.60;48.00;;;;;;2345336;53;20936;-65
2021/03/11 07:58:43;;;;;;;;;;;14.60;48.20;;;;;;2349096;54;20959;-67
2021/03/11 08:01:09;;;;;;;5.37;2.30;;;14.70;48.10;;;;;;2582124;53;20115;-64
2021/03/11 08:03:36;;;;;;;4.78;2.00;;;14.70;47.90;;;;;;2342111;53;20937;-63
2021/03/11 08:06:22;;;;;;;6.40;2.33;;;14.80;48.30;;;;;;2588142;53;20969;-68
2021/03/11 08:08:48;;;;;;;4.53;1.87;;;14.80;47.70;;;;;;2334831;53;21055;-66
2021/03/11 08:11:40;;;;;;;6.50;2.00;;;14.90;48.00;;;;;;2593013;52;20992;-64
2021/03/11 08:14:27;;;;;;;5.35;2.00;;;14.90;48.10;;;;;;2587223;53;20969;-67
2021/03/11 08:16:57;;;;;;;5.57;2.03;;;15.00;48.00;;;;;;2341015;53;21059;-67
2021/03/11 08:22:16;;;;;;;7.22;1.83;;;15.00;48.00;;;;;;2585975;53;21016;-66
2021/03/11 08:24:47;;;;;;;4.80;1.67;;;15.10;47.30;;;;;;2584148;53;21747;-64
2021/03/11 08:30:49;;;;;;;3.90;1.85;;;15.10;48.10;;;;;;2348988;53;20966;-63
2021/03/11 08:33:59;;;;;;;7.18;2.55;;;15.20;48.00;;;;;;2341659;53;20947;-66
2021/03/11 08:36:26;;;;;;;3.87;2.10;;;15.30;47.90;;;;;;2345373;53;20953;-66
2021/03/11 08:38:53;;;;;;;3.83;1.70;;;15.30;48.00;;;;;;2338272;53;21883;-64
2021/03/11 08:41:31;;;;;;;3.55;1.12;;;15.30;48.00;;;;;;2332780;53;20969;-67
2021/03/11 08:44:01;;;;;;;3.65;1.75;;;15.40;48.30;;;;;;2338364;53;21461;-65
2021/03/11 08:46:48;;;;;;;3.62;1.42;;;15.40;48.30;;;;;;2620262;52;21837;-67
2021/03/11 08:49:39;;;;;;;5.20;1.45;;;15.40;48.20;;;;;;2622530;52;21451;-67
2021/03/11 08:52:06;;;;;;;3.17;1.10;;;15.40;48.30;;;;;;2353334;53;21015;-68
2021/03/11 08:54:33;;;;;;;5.87;1.40;;;15.50;48.80;;;;;;2350497;54;21817;-64
2021/03/11 08:57:00;;;;;;;7.22;1.30;;;15.60;48.80;;;;;;2343660;53;21562;-65
2021/03/11 08:59:45;;;;;;;2.92;1.10;;;15.60;48.60;;;;;;2360597;53;20955;-66
2021/03/11 09:02:33;;;;;;;3.67;1.20;;;15.70;48.40;;;;;;2363790;53;21517;-64
2021/03/11 09:05:00;;;;;;;3.12;1.20;;;15.70;48.80;;;;;;2604055;52;20919;-66
2021/03/11 09:07:32;;;;;;;5.53;1.30;;;15.70;48.90;;;;;;2347445;53;21044;-63
2021/03/11 09:09:58;;;;;;;3.05;1.40;;;15.70;49.00;;;;;;2370114;54;20934;-65
2021/03/11 09:12:46;;;;;;;4.82;1.95;;;15.50;49.00;;;;;;2369812;54;20978;-66
2021/03/11 09:15:13;;;;;;;2.70;1.30;;;15.70;49.20;;;;;;2623504;52;20982;-65
2021/03/11 09:17:44;;;;;;;5.28;1.48;;;15.70;49.30;;;;;;2369704;53;20937;-65
2021/03/11 09:20:17;;;;;;;4.57;1.45;;;15.70;49.50;;;;;;2363220;53;20994;-63
2021/03/11 09:22:51;;;;;;;4.60;1.30;;;15.70;49.60;;;;;;2339424;55;21014;-66
2021/03/11 09:25:22;;;;;;;2.70;1.10;;;15.80;49.90;;;;;;2342280;54;21227;-67
2021/03/11 09:28:01;;;;;;;5.03;1.27;;;15.80;50.20;;;;;;2335712;53;23212;-65
2021/03/11 09:30:39;;;;;;;2.90;1.15;;;15.80;50.30;;;;;;2312918;54;21108;-65
2021/03/11 09:33:20;;;;;;;4.18;1.77;;;15.90;50.20;;;;;;2334786;53;20994;-65
2021/03/11 09:35:47;;;;;;;3.60;1.50;;;15.90;50.20;;;;;;2577169;53;20959;-67
2021/03/11 09:38:23;;;;;;;3.28;1.30;;;15.90;50.30;;;;;;2324494;53;20910;-66
2021/03/11 09:40:52;;;;;;;3.28;1.45;;;16.00;50.60;;;;;;2318679;54;21575;-66
2021/03/11 09:43:26;;;;;;;4.53;1.73;;;16.00;50.60;;;;;;2318516;54;20996;-66
2021/03/11 09:46:01;;;;;;;2.67;1.23;;;16.00;50.40;;;;;;2366128;54;20958;-64
2021/03/11 09:48:53;;;;;;;3.25;1.30;;;16.00;50.60;;;;;;2622597;52;20995;-67
2021/03/11 09:51:28;;;;;;;3.53;1.00;;;16.10;50.60;;;;;;2335419;54;21427;-67
2021/03/11 09:53:58;;;;;;;2.83;1.10;;;16.10;50.70;;;;;;2370109;53;20982;-66
2021/03/11 09:56:29;;;;;;;3.10;1.20;;;16.10;50.90;;;;;;2366357;53;21028;-68
2021/03/11 09:59:03;;;;;;;2.15;0.88;;;16.10;51.00;;;;;;2352757;53;20942;-66
2021/03/11 10:01:35;;;;;;;2.20;0.90;;;16.10;50.90;;;;;;2364887;54;21031;-64
2021/03/11 10:04:11;;;;;;;4.12;1.17;;;16.20;51.20;;;;;;2356249;53;21067;-65
2021/03/11 10:06:39;;;;;;;2.55;0.90;;;16.10;50.90;;;;;;2348961;53;21047;-63
2021/03/11 10:09:09;;;;;;;4.68;1.00;;;16.10;50.90;;;;;;2365125;53;21017;-66
2021/03/11 10:11:47;;;;;;;1.90;0.70;;;16.20;51.20;;;;;;2370224;53;20958;-65
2021/03/11 10:14:16;;;;;;;2.35;0.90;;;16.20;51.10;;;;;;2369881;54;21013;-65
2021/03/11 10:16:44;;;;;;;2.40;0.80;;;16.20;51.10;;;;;;2347766;53;21548;-70
2021/03/11 10:19:15;;;;;;;1.77;0.70;;;16.20;51.30;;;;;;2354269;53;21022;-66
2021/03/11 10:21:55;;;;;;;1.70;0.70;;;16.20;51.30;;;;;;2370432;53;20958;-66
2021/03/11 10:26:20;;;;;;;3.05;0.93;;;16.20;51.30;;;;;;2599334;52;20986;-65
2021/03/11 10:28:49;;;;;;;3.95;0.90;;;16.20;51.00;;;;;;2353322;53;20971;-67
2021/03/11 10:31:17;;;;;;;2.00;1.00;;;16.30;51.30;;;;;;2366395;53;21760;-65
2021/03/11 10:33:44;;;;;;;3.78;0.80;;;16.20;51.30;;;;;;2364693;53;21003;-67
2021/03/11 10:36:15;;;;;;;2.92;0.70;;;16.20;51.30;;;;;;2358518;53;20946;-66
2021/03/11 10:38:42;;;;;;;2.08;0.80;;;16.20;51.80;;;;;;2345604;53;20940;-63
2021/03/11 10:41:18;;;;;;;1.70;0.80;;;16.20;51.50;;;;;;2359229;53;22009;-67
2021/03/11 10:43:45;;;;;;;3.08;0.70;;;16.20;51.70;;;;;;2365152;54;21006;-65
2021/03/11 10:46:16;;;;;;;2.92;0.90;;;16.20;51.80;;;;;;2349860;53;21029;-66
2021/03/11 10:48:52;;;;;;;3.80;0.90;;;16.20;51.80;;;;;;2353030;53;21015;-67
2021/03/11 10:51:20;;;;;;;2.30;0.65;;;16.20;51.90;;;;;;2366950;53;20981;-66
2021/03/11 10:53:46;;;;;;;2.97;0.90;;;16.20;52.00;;;;;;2351203;53;20967;-65
2021/03/11 10:56:13;;;;;;;2.17;0.93;;;16.20;52.10;;;;;;2350775;53;21467;-66
2021/03/11 10:58:40;;;;;;;3.95;0.90;;;16.20;52.30;;;;;;2351384;54;20958;-66
2021/03/11 11:01:09;;;;;;;2.45;0.93;;;16.10;52.40;;;;;;2351129;54;20943;-67
2021/03/11 11:03:37;;;;;;;3.65;0.88;;;16.00;52.50;;;;;;2600529;52;20976;-64
2021/03/11 11:06:04;;;;;;;2.28;1.02;;;16.00;52.90;;;;;;2335237;54;20946;-66
2021/03/11 11:08:31;;;;;;;2.22;0.93;;;15.90;53.30;;;;;;2356029;53;20940;-65
2021/03/11 11:10:58;;;;;;;1.95;0.90;;;15.70;53.30;;;;;;2588894;52;21499;-65
2021/03/11 11:13:24;;;;;;;2.10;0.80;;;15.60;53.60;;;;;;2359887;53;21002;-66
2021/03/11 11:15:50;;;;;;;2.42;1.23;;;15.50;53.90;;;;;;2357656;53;21030;-63
2021/03/11 11:18:17;;;;;;;1.70;0.82;;;15.40;54.10;;;;;;2351722;53;20953;-65
2021/03/11 11:20:43;;;;;;;2.83;1.00;;;15.40;54.60;;;;;;2368564;53;20988;-65
2021/03/11 11:23:11;;;;;;;2.70;1.00;;;15.30;54.90;;;;;;2349182;54;21402;-68
2021/03/11 11:25:37;;;;;;;2.30;1.12;;;15.20;55.10;;;;;;2356262;54;20964;-65
2021/03/11 11:28:06;;;;;;;2.42;1.10;;;15.20;55.50;;;;;;2610269;52;20989;-67
2021/03/11 11:30:35;;;;;;;2.80;1.20;;;15.10;55.70;;;;;;2352548;54;20976;-65
2021/03/11 11:33:02;;;;;;;2.62;1.20;;;15.10;56.10;;;;;;2369284;53;20974;-66
2021/03/11 11:35:28;;;;;;;2.83;1.20;;;15.10;56.30;;;;;;2591403;52;20963;-67
2021/03/11 11:37:55;;;;;;;3.72;1.10;;;15.10;56.50;;;;;;2351142;53;21016;-67
2021/03/11 11:40:21;;;;;;;3.40;1.30;;;15.10;56.60;;;;;;2621352;52;20918;-66
2021/03/11 11:42:48;;;;;;;2.58;1.17;;;15.10;56.80;;;;;;2613422;52;21038;-65
2021/03/11 11:45:15;;;;;;;2.87;1.33;;;15.10;56.80;;;;;;2597523;52;20946;-65
2021/03/11 11:47:44;;;;;;;2.53;1.10;;;15.20;56.90;;;;;;2368117;54;21168;-66
2021/03/11 11:50:11;;;;;;;2.50;1.00;;;15.20;56.90;;;;;;2350637;53;21023;-66
2021/03/11 11:52:42;;;;;;;2.67;1.20;;;15.20;56.90;;;;;;2350061;53;20918;-66
2021/03/11 11:55:10;;;;;;;3.08;1.37;;;15.30;56.90;;;;;;2345074;53;21813;-68
2021/03/11 11:57:37;;;;;;;1.85;0.95;;;15.40;57.10;;;;;;2583544;53;20908;-65
2021/03/11 12:00:13;;;;;;;2.50;1.08;;;15.40;57.10;;;;;;2344929;53;22250;-67
2021/03/11 12:02:39;;;;;;;2.30;1.00;;;15.50;57.10;;;;;;2318113;54;21949;-66
2021/03/11 12:05:07;;;;;;;2.33;0.98;;;15.50;57.10;;;;;;2586462;53;20944;-65
2021/03/11 12:07:35;;;;;;;2.47;1.00;;;15.50;57.10;;;;;;2606399;52;23092;-67
2021/03/11 12:10:06;;;;;;;2.30;0.98;;;15.50;57.10;;;;;;2370175;54;21016;-66
2021/03/11 12:12:33;;;;;;;1.53;0.80;;;15.60;57.20;;;;;;2369873;53;20954;-64
2021/03/11 12:14:59;;;;;;;4.05;1.10;;;15.60;57.30;;;;;;2352841;53;21095;-66
2021/03/11 12:17:27;;;;;;;2.95;0.90;;;15.70;57.40;;;;;;2359697;53;21860;-64
2021/03/11 12:19:54;;;;;;;2.67;1.40;;;15.70;57.50;;;;;;2358379;54;21446;-66
2021/03/11 12:22:20;;;;;;;2.67;1.10;;;15.70;57.40;;;;;;2614556;52;20967;-67
2021/03/11 12:24:48;;;;;;;2.42;0.98;;;15.80;57.30;;;;;;2347522;53;21021;-67
2021/03/11 12:27:17;;;;;;;2.10;0.90;;;15.80;57.40;;;;;;2621340;52;21440;-65
2021/03/11 12:29:44;;;;;;;2.15;0.90;;;15.80;57.50;;;;;;2622745;52;20942;-67
2021/03/11 12:32:13;;;;;;;2.50;0.90;;;15.90;57.60;;;;;;2336431;54;21014;-66
2021/03/11 12:34:40;;;;;;;2.42;1.00;;;15.90;57.60;;;;;;2357486;53;21001;-68
2021/03/11 12:37:06;;;;;;;2.55;1.10;;;16.00;57.70;;;;;;2590799;52;20893;-67
2021/03/11 12:39:32;;;;;;;2.78;1.10;;;16.00;57.60;;;;;;2350222;53;20958;-68
2021/03/11 12:42:00;;;;;;;2.35;1.10;;;16.10;57.60;;;;;;2585816;53;21519;-66
2021/03/11 12:44:26;;;;;;;3.28;1.40;;;16.10;57.70;;;;;;2355211;54;20930;-68
2021/03/11 12:46:54;;;;;;;2.97;1.45;;;16.20;57.80;;;;;;2369870;53;20941;-66
2021/03/11 12:49:21;;;;;;;3.10;1.45;;;16.20;57.90;;;;;;2606139;52;20955;-66
2021/03/11 12:51:48;;;;;;;3.58;1.67;;;16.30;58.00;;;;;;2354931;53;20963;-68
2021/03/11 12:54:14;;;;;;;7.50;4.12;;;16.40;57.90;;;;;;2600068;52;21917;-66
2021/03/11 12:56:41;;;;;;;8.70;4.32;;;16.50;57.80;;;;;;2615369;52;21063;-67
2021/03/11 12:59:13;;;;;;;3.87;1.80;;;16.50;57.60;;;;;;2350549;53;21157;-66
2021/03/11 13:01:43;;;;;;;2.62;1.12;;;16.60;57.50;;;;;;2365924;53;21792;-68
2021/03/11 13:04:10;;;;;;;2.83;1.27;;;16.70;57.40;;;;;;2368729;54;21913;-67
2021/03/11 13:06:41;;;;;;;2.12;0.80;;;16.70;57.00;;;;;;2367766;54;21062;-66
2021/03/11 13:09:13;;;;;;;2.03;0.75;;;16.70;57.10;;;;;;2369106;54;21021;-67
2021/03/11 13:11:44;;;;;;;1.37;0.52;;;16.80;57.10;;;;;;2348475;54;21022;-65
2021/03/11 13:14:14;;;;;;;1.30;0.70;;;16.80;57.10;;;;;;2350498;53;20997;-66
2021/03/11 13:16:47;;;;;;;1.15;0.60;;;16.70;56.60;;;;;;2348957;54;20926;-65
2021/03/11 13:19:15;;;;;;;1.35;0.50;;;16.90;57.40;;;;;;2362866;54;20995;-67
2021/03/11 13:21:43;;;;;;;1.52;0.60;;;17.00;56.60;;;;;;2357317;54;20949;-66
2021/03/11 13:24:11;;;;;;;1.92;0.90;;;17.00;56.40;;;;;;2601157;52;20986;-68
2021/03/11 13:26:38;;;;;;;1.50;0.60;;;17.00;56.20;;;;;;2349759;53;20979;-66
2021/03/11 13:29:05;;;;;;;1.92;0.77;;;17.00;56.10;;;;;;2362174;53;21001;-67